createdAt,value
2019-02-24T00:02:18.313Z,89.80
2019-02-24T00:04:59.161Z,90.20
2019-02-24T00:07:39.941Z,90.30
2019-02-24T00:10:21.022Z,90.50
2019-02-24T00:13:01.911Z,90.80
2019-02-24T00:15:30.340Z,91.20
2019-02-24T00:18:18.077Z,91.10
2019-02-24T00:21:05.872Z,91.40
2019-02-24T00:23:53.637Z,91.20
2019-02-24T00:26:41.710Z,91.50
2019-02-24T00:29:29.472Z,91.90
2019-02-24T00:32:17.232Z,92.20
2019-02-24T00:35:05.647Z,92.60
2019-02-24T00:37:53.413Z,92.50
2019-02-24T00:40:41.405Z,92.70
2019-02-24T00:43:29.155Z,93.00
2019-02-24T00:46:09.772Z,92.90
2019-02-24T00:48:50.348Z,92.90
2019-02-24T00:51:30.881Z,92.90
2019-02-24T00:54:11.021Z,92.90
2019-02-24T00:56:51.821Z,93.00
2019-02-24T00:59:32.592Z,93.60
2019-02-24T01:02:13.366Z,94.00
2019-02-24T01:04:54.280Z,93.70
2019-02-24T01:07:34.648Z,93.80
2019-02-24T01:10:15.380Z,94.20
2019-02-24T01:12:56.019Z,94.60
2019-02-24T01:15:36.628Z,95.00
2019-02-24T01:18:17.787Z,95.30
2019-02-24T01:20:58.444Z,95.20
2019-02-24T01:23:39.213Z,95.20
2019-02-24T01:26:20.197Z,95.30
2019-02-24T01:29:00.984Z,95.40
2019-02-24T01:31:41.580Z,95.30
2019-02-24T01:34:22.442Z,95.40
2019-02-24T01:37:03.469Z,95.70
2019-02-24T01:39:44.007Z,95.50
2019-02-24T01:42:25.185Z,95.80
2019-02-24T01:45:05.790Z,95.80
2019-02-24T01:47:46.576Z,95.80
2019-02-24T01:50:27.235Z,95.80
2019-02-24T01:53:08.096Z,95.60
2019-02-24T01:55:48.927Z,95.80
2019-02-24T01:58:35.124Z,96.20
2019-02-24T02:01:11.385Z,96.60
2019-02-24T02:03:52.780Z,96.80
2019-02-24T02:06:33.252Z,96.90
2019-02-24T02:09:14.145Z,96.80
2019-02-24T02:11:54.812Z,97.20
2019-02-24T02:14:35.772Z,97.20
2019-02-24T02:17:16.789Z,97.20
2019-02-24T02:19:57.236Z,97.30
2019-02-24T02:22:37.838Z,97.50
2019-02-24T02:25:18.521Z,97.60
2019-02-24T02:27:58.737Z,97.80
2019-02-24T02:30:39.701Z,97.80
2019-02-24T02:33:20.223Z,97.80
2019-02-24T02:36:00.808Z,97.90
2019-02-24T02:38:41.484Z,97.90
2019-02-24T02:41:22.351Z,98.10
2019-02-24T02:44:03.021Z,97.80
2019-02-24T02:46:43.713Z,98.60
2019-02-24T02:49:24.595Z,98.10
2019-02-24T02:52:05.450Z,98.40
2019-02-24T02:54:45.977Z,98.40
2019-02-24T02:57:26.615Z,98.40
2019-02-24T03:00:08.349Z,98.70
2019-02-24T03:02:49.016Z,99.00
2019-02-24T03:05:29.593Z,99.10
2019-02-24T03:08:12.247Z,99.00
2019-02-24T03:10:52.488Z,99.00
2019-02-24T03:13:33.474Z,99.00
2019-02-24T03:16:12.180Z,99.10
2019-02-24T03:18:59.969Z,99.10
2019-02-24T03:21:47.944Z,99.20
2019-02-24T03:24:35.708Z,99.40
2019-02-24T03:27:23.445Z,99.60
2019-02-24T03:30:11.253Z,99.70
2019-02-24T03:32:58.997Z,99.50
2019-02-24T03:35:46.762Z,99.10
2019-02-24T03:38:34.497Z,99.10
2019-02-24T03:41:22.275Z,98.60
2019-02-24T03:44:10.027Z,98.90
2019-02-24T03:46:57.789Z,98.90
2019-02-24T03:49:45.536Z,98.90
2019-02-24T03:52:40.842Z,98.90
2019-02-24T03:55:28.606Z,98.90
2019-02-24T03:58:09.754Z,99.10
2019-02-24T04:00:50.518Z,99.00
2019-02-24T04:03:31.243Z,98.90
2019-02-24T04:06:11.514Z,99.30
2019-02-24T04:08:52.593Z,99.70
2019-02-24T04:11:33.319Z,99.60
2019-02-24T04:14:14.257Z,99.50
2019-02-24T04:16:55.013Z,99.50
2019-02-24T04:19:35.905Z,99.60
2019-02-24T04:22:16.485Z,99.60
2019-02-24T04:24:57.299Z,99.60
2019-02-24T04:27:38.306Z,99.80
2019-02-24T04:30:19.112Z,99.90
2019-02-24T04:33:00.157Z,99.80
2019-02-24T04:35:40.860Z,99.90
2019-02-24T04:38:21.429Z,99.90
2019-02-24T04:41:02.605Z,99.90
2019-02-24T04:43:43.440Z,99.90
2019-02-24T04:46:24.479Z,99.90
2019-02-24T04:49:05.078Z,99.90
2019-02-24T04:51:45.605Z,99.90
2019-02-24T04:54:26.065Z,99.90
2019-02-24T04:57:07.238Z,99.90
2019-02-24T04:59:47.665Z,99.90
2019-02-24T05:02:28.726Z,99.90
2019-02-24T05:05:09.520Z,99.90
2019-02-24T05:07:50.391Z,99.90
2019-02-24T05:10:30.833Z,99.90
2019-02-24T05:13:11.680Z,99.90
2019-02-24T05:15:52.773Z,99.90
2019-02-24T05:18:33.556Z,99.90
2019-02-24T05:21:14.036Z,99.90
2019-02-24T05:23:55.208Z,99.90
2019-02-24T05:26:35.674Z,99.90
2019-02-24T05:29:16.143Z,99.90
2019-02-24T05:31:57.010Z,99.90
2019-02-24T05:34:37.631Z,99.90
2019-02-24T05:37:18.436Z,99.90
2019-02-24T05:39:58.808Z,99.90
2019-02-24T05:42:39.407Z,99.90
2019-02-24T05:45:20.217Z,99.90
2019-02-24T05:48:01.093Z,99.90
2019-02-24T05:50:41.705Z,99.90
2019-02-24T05:53:22.109Z,99.90
2019-02-24T05:56:03.175Z,99.90
2019-02-24T05:58:43.706Z,99.90
2019-02-24T06:01:24.477Z,99.90
2019-02-24T06:04:05.253Z,99.90
2019-02-24T06:06:46.025Z,99.90
2019-02-24T06:09:26.525Z,99.90
2019-02-24T06:12:07.081Z,99.90
2019-02-24T06:14:47.784Z,99.90
2019-02-24T06:17:28.589Z,99.90
2019-02-24T06:20:09.027Z,99.90
2019-02-24T06:22:49.606Z,99.90
2019-02-24T06:25:30.281Z,99.90
2019-02-24T06:28:11.310Z,99.90
2019-02-24T06:30:51.808Z,99.90
2019-02-24T06:33:32.326Z,99.90
2019-02-24T06:36:13.095Z,99.90
2019-02-24T06:38:53.501Z,99.90
2019-02-24T06:41:34.080Z,99.90
2019-02-24T06:44:14.984Z,99.90
2019-02-24T06:46:55.836Z,99.90
2019-02-24T06:49:36.474Z,99.90
2019-02-24T06:52:19.035Z,99.90
2019-02-24T06:54:59.219Z,99.90
2019-02-24T06:57:39.936Z,99.90
2019-02-24T07:00:20.949Z,99.90
2019-02-24T07:03:01.909Z,99.90
2019-02-24T07:05:42.444Z,99.90
2019-02-24T07:08:23.468Z,99.90
2019-02-24T07:11:04.036Z,99.90
2019-02-24T07:13:32.496Z,99.90
2019-02-24T07:16:20.325Z,99.90
2019-02-24T07:19:08.064Z,99.90
2019-02-24T07:21:55.828Z,99.90
2019-02-24T07:24:43.572Z,99.90
2019-02-24T07:27:31.331Z,99.90
2019-02-24T07:30:23.616Z,99.90
2019-02-24T07:33:08.601Z,99.90
2019-02-24T07:35:56.343Z,99.90
2019-02-24T07:38:44.101Z,99.90
2019-02-24T07:41:31.844Z,99.90
2019-02-24T07:44:19.879Z,99.90
2019-02-24T07:47:07.624Z,99.90
2019-02-24T07:49:55.385Z,99.90
2019-02-24T07:52:43.131Z,99.90
2019-02-24T07:55:30.901Z,99.90
2019-02-24T07:58:18.640Z,99.90
2019-02-24T08:01:06.410Z,99.90
2019-02-24T08:03:54.144Z,99.90
2019-02-24T08:06:41.908Z,99.90
2019-02-24T08:09:29.644Z,99.90
2019-02-24T08:12:17.716Z,99.90
2019-02-24T08:15:26.416Z,99.90
2019-02-24T08:18:14.167Z,99.90
2019-02-24T08:20:55.199Z,99.90
2019-02-24T08:23:36.096Z,99.90
2019-02-24T08:26:16.697Z,99.90
2019-02-24T08:28:57.769Z,99.90
2019-02-24T08:31:38.705Z,99.90
2019-02-24T08:34:19.465Z,99.90
2019-02-24T08:37:00.469Z,99.90
2019-02-24T08:39:41.173Z,99.90
2019-02-24T08:42:21.783Z,99.90
2019-02-24T08:45:02.384Z,99.90
2019-02-24T08:47:42.850Z,99.90
2019-02-24T08:50:23.617Z,99.90
2019-02-24T08:53:04.422Z,99.90
2019-02-24T08:55:45.026Z,99.90
2019-02-24T08:58:25.797Z,99.90
2019-02-24T09:01:06.808Z,99.90
2019-02-24T09:03:47.853Z,99.90
2019-02-24T09:06:28.355Z,99.90
2019-02-24T09:09:09.012Z,99.60
2019-02-24T09:11:49.924Z,99.50
2019-02-24T09:14:31.051Z,99.50
2019-02-24T09:17:11.657Z,99.70
2019-02-24T09:19:52.597Z,98.90
2019-02-24T09:22:33.293Z,98.60
2019-02-24T09:25:13.992Z,98.50
2019-02-24T09:27:54.618Z,98.60
2019-02-24T09:30:35.604Z,98.10
2019-02-24T09:33:16.482Z,98.30
2019-02-24T09:35:57.560Z,97.30
2019-02-24T09:38:38.103Z,98.00
2019-02-24T09:41:19.267Z,96.90
2019-02-24T09:43:59.677Z,97.00
2019-02-24T09:46:40.244Z,96.50
2019-02-24T09:49:21.032Z,96.90
2019-02-24T09:52:01.558Z,95.20
2019-02-24T09:54:42.270Z,95.40
2019-02-24T09:57:23.189Z,94.60
2019-02-24T10:00:03.607Z,99.90
2019-02-24T10:02:44.640Z,93.40
2019-02-24T10:05:25.166Z,92.60
2019-02-24T10:08:08.080Z,92.40
2019-02-24T10:10:46.648Z,92.50
2019-02-24T10:13:34.420Z,92.00
2019-02-24T10:16:22.175Z,92.40
2019-02-24T10:19:09.927Z,90.90
2019-02-24T10:21:57.679Z,90.30
2019-02-24T10:24:45.459Z,90.60
2019-02-24T10:27:33.189Z,90.90
2019-02-24T10:30:20.954Z,90.20
2019-02-24T10:33:08.729Z,89.40
2019-02-24T10:35:56.481Z,89.10
2019-02-24T10:38:44.750Z,88.30
2019-02-24T10:41:32.524Z,88.50
2019-02-24T10:44:39.848Z,89.10
2019-02-24T10:47:27.654Z,89.40
2019-02-24T10:52:57.259Z,89.60
2019-02-24T10:55:37.896Z,87.80
2019-02-24T10:58:18.751Z,87.40
2019-02-24T11:00:59.849Z,86.40
2019-02-24T11:03:40.842Z,87.90
2019-02-24T11:06:21.438Z,87.50
2019-02-24T11:09:02.507Z,85.00
2019-02-24T11:11:42.838Z,84.70
2019-02-24T11:14:23.940Z,82.80
2019-02-24T11:17:04.829Z,84.50
2019-02-24T11:19:45.651Z,85.90
2019-02-24T11:22:26.071Z,79.20
2019-02-24T11:25:06.610Z,80.90
2019-02-24T11:27:47.785Z,77.20
2019-02-24T11:30:28.945Z,78.90
2019-02-24T11:33:09.788Z,79.00
2019-02-24T11:35:50.413Z,76.30
2019-02-24T11:38:30.823Z,75.10
2019-02-24T11:41:11.931Z,77.30
2019-02-24T11:43:53.044Z,72.80
2019-02-24T11:46:34.192Z,72.00
2019-02-24T11:49:14.514Z,71.40
2019-02-24T11:52:03.497Z,72.10
2019-02-24T11:54:37.928Z,73.10
2019-02-24T11:57:18.870Z,71.00
2019-02-24T11:59:59.542Z,71.30
2019-02-24T12:02:41.858Z,70.20
2019-02-24T12:05:22.631Z,74.30
2019-02-24T12:08:03.709Z,70.40
2019-02-24T12:10:44.148Z,67.80
2019-02-24T12:13:25.228Z,68.80
2019-02-24T12:16:07.244Z,68.30
2019-02-24T12:18:47.653Z,69.50
2019-02-24T12:21:28.542Z,69.00
2019-02-24T12:24:09.497Z,73.50
2019-02-24T12:26:49.961Z,76.90
2019-02-24T12:29:31.046Z,75.60
2019-02-24T12:32:11.755Z,74.50
2019-02-24T12:34:53.148Z,72.70
2019-02-24T12:37:33.650Z,71.60
2019-02-24T12:40:14.286Z,73.20
2019-02-24T12:42:54.996Z,70.30
2019-02-24T12:45:35.653Z,69.80
2019-02-24T12:48:16.367Z,69.70
2019-02-24T12:50:57.478Z,73.20
2019-02-24T12:53:38.251Z,68.80
2019-02-24T12:56:17.104Z,70.20
2019-02-24T12:59:04.877Z,69.70
2019-02-24T13:01:52.674Z,69.60
2019-02-24T13:04:40.485Z,73.20
2019-02-24T13:07:28.674Z,70.30
2019-02-24T13:10:16.680Z,76.10
2019-02-24T13:13:04.462Z,94.40
2019-02-24T13:15:52.207Z,81.50
2019-02-24T13:18:40.256Z,82.20
2019-02-24T13:21:28.134Z,73.90
2019-02-24T13:24:15.888Z,78.20
2019-02-24T13:27:05.504Z,73.20
2019-02-24T13:29:46.489Z,68.90
2019-02-24T13:32:27.560Z,76.90
2019-02-24T13:35:08.163Z,72.90
2019-02-24T13:37:48.685Z,70.40
2019-02-24T13:40:29.599Z,72.70
2019-02-24T13:43:10.722Z,71.80
2019-02-24T13:45:51.093Z,69.20
2019-02-24T13:48:35.520Z,68.50
2019-02-24T13:51:16.030Z,68.30
2019-02-24T13:53:56.562Z,67.10
2019-02-24T13:56:37.288Z,67.10
2019-02-24T14:01:57.145Z,63.60
2019-02-24T14:04:37.517Z,62.10
2019-02-24T14:07:18.109Z,62.60
2019-02-24T14:09:59.028Z,63.20
2019-02-24T14:12:39.808Z,63.10
2019-02-24T14:15:20.693Z,60.90
2019-02-24T14:18:01.770Z,62.80
2019-02-24T14:20:42.792Z,60.60
2019-02-24T14:23:23.332Z,60.20
2019-02-24T14:26:04.429Z,59.40
2019-02-24T14:28:45.122Z,61.80
2019-02-24T14:31:25.755Z,60.50
2019-02-24T14:34:06.672Z,59.70
2019-02-24T14:36:47.524Z,74.80
2019-02-24T14:39:28.218Z,62.90
2019-02-24T14:42:08.859Z,61.80
2019-02-24T14:44:49.781Z,65.90
2019-02-24T14:47:30.853Z,65.20
2019-02-24T14:50:11.832Z,73.90
2019-02-24T14:52:52.347Z,67.70
2019-02-24T14:55:33.280Z,68.50
2019-02-24T14:58:17.192Z,68.50
2019-02-24T15:01:00.638Z,64.60
2019-02-24T15:03:41.296Z,73.70
2019-02-24T15:06:21.948Z,71.20
2019-02-24T15:09:02.528Z,71.50
2019-02-24T15:11:31.280Z,64.20
2019-02-24T15:14:19.076Z,64.00
2019-02-24T15:17:06.823Z,85.90
2019-02-24T15:19:54.589Z,73.60
2019-02-24T15:22:42.340Z,74.50
2019-02-24T15:25:30.091Z,82.90
2019-02-24T15:28:17.862Z,71.60
2019-02-24T15:31:05.924Z,74.70
2019-02-24T15:33:47.053Z,66.00
2019-02-24T15:36:27.865Z,65.60
2019-02-24T15:39:08.265Z,62.90
2019-02-24T15:41:49.118Z,62.70
2019-02-24T15:44:17.620Z,61.70
2019-02-24T15:47:05.384Z,62.90
2019-02-24T15:49:53.481Z,62.30
2019-02-24T15:52:41.225Z,62.80
2019-02-24T15:55:21.913Z,63.20
2019-02-24T15:58:03.006Z,63.90
2019-02-24T16:00:43.537Z,65.30
2019-02-24T16:03:24.233Z,64.60
2019-02-24T16:06:05.221Z,63.90
2019-02-24T16:08:46.014Z,63.00
2019-02-24T16:11:26.834Z,63.90
2019-02-24T16:14:07.140Z,64.80
2019-02-24T16:16:48.047Z,63.50
2019-02-24T16:19:28.888Z,66.00
2019-02-24T16:22:09.669Z,66.10
2019-02-24T16:24:50.550Z,66.90
2019-02-24T16:27:31.485Z,66.90
2019-02-24T16:30:12.031Z,68.20
2019-02-24T16:32:53.578Z,67.60
2019-02-24T16:35:34.677Z,67.80
2019-02-24T16:38:15.419Z,65.90
2019-02-24T16:40:56.244Z,67.00
2019-02-24T16:43:37.245Z,68.00
2019-02-24T16:46:17.657Z,68.50
2019-02-24T16:48:58.873Z,68.50
2019-02-24T16:51:39.325Z,69.50
2019-02-24T16:54:20.129Z,66.60
2019-02-24T16:57:04.944Z,67.70
2019-02-24T16:59:43.857Z,68.90
2019-02-24T17:02:24.435Z,69.80
2019-02-24T17:05:05.111Z,69.30
2019-02-24T17:07:45.800Z,69.40
2019-02-24T17:10:26.625Z,70.30
2019-02-24T17:13:07.129Z,70.70
2019-02-24T17:15:47.763Z,71.60
2019-02-24T17:18:28.797Z,73.60
2019-02-24T17:21:09.329Z,73.70
2019-02-24T17:23:52.243Z,73.80
2019-02-24T17:26:32.976Z,72.00
2019-02-24T17:29:13.997Z,73.90
2019-02-24T17:31:54.531Z,73.80
2019-02-24T17:34:35.401Z,74.00
2019-02-24T17:37:20.040Z,73.40
2019-02-24T17:39:58.636Z,73.20
2019-02-24T17:42:39.514Z,73.40
2019-02-24T17:45:20.410Z,73.70
2019-02-24T17:48:01.242Z,74.50
2019-02-24T17:50:42.137Z,74.70
2019-02-24T17:53:22.905Z,75.30
2019-02-24T17:56:03.924Z,74.80
2019-02-24T17:58:44.985Z,75.50
2019-02-24T18:01:26.095Z,76.20
2019-02-24T18:04:06.525Z,77.50
2019-02-24T18:06:47.577Z,78.00
2019-02-24T18:09:28.258Z,78.60
2019-02-24T18:12:08.704Z,77.40
2019-02-24T18:14:49.604Z,77.30
2019-02-24T18:17:30.681Z,77.60
2019-02-24T18:20:11.235Z,80.10
2019-02-24T18:22:51.745Z,78.60
2019-02-24T18:25:33.019Z,79.20
2019-02-24T18:28:13.728Z,80.10
2019-02-24T18:30:54.306Z,80.00
2019-02-24T18:33:34.968Z,80.20
2019-02-24T18:36:15.732Z,80.70
2019-02-24T18:38:56.615Z,80.10
2019-02-24T18:41:37.568Z,80.90
2019-02-24T18:44:18.121Z,81.90
2019-02-24T18:46:58.905Z,80.40
2019-02-24T18:49:39.886Z,79.80
2019-02-24T18:52:20.644Z,79.80
2019-02-24T18:55:01.189Z,81.60
2019-02-24T18:57:42.508Z,82.80
2019-02-24T19:00:22.935Z,82.20
2019-02-24T19:03:03.688Z,80.90
2019-02-24T19:05:44.649Z,80.40
2019-02-24T19:08:25.376Z,80.30
2019-02-24T19:11:06.236Z,80.40
2019-02-24T19:13:46.942Z,81.60
2019-02-24T19:16:27.685Z,82.90
2019-02-24T19:19:08.664Z,83.30
2019-02-24T19:21:49.107Z,84.40
2019-02-24T19:24:29.758Z,84.40
2019-02-24T19:27:10.633Z,83.60
2019-02-24T19:29:51.973Z,83.80
2019-02-24T19:32:32.592Z,83.80
2019-02-24T19:35:13.041Z,84.70
2019-02-24T19:37:53.532Z,84.60
2019-02-24T19:40:34.668Z,84.20
2019-02-24T19:43:15.721Z,86.00
2019-02-24T19:45:56.657Z,87.90
2019-02-24T19:48:41.965Z,86.00
2019-02-24T19:51:20.139Z,87.30
2019-02-24T19:54:01.193Z,87.30
2019-02-24T19:56:41.985Z,87.30
2019-02-24T19:59:22.789Z,87.70
2019-02-24T20:02:03.217Z,88.30
2019-02-24T20:04:44.211Z,89.10
2019-02-24T20:07:24.956Z,89.90
2019-02-24T20:10:05.840Z,90.20
2019-02-24T20:12:46.441Z,89.80
2019-02-24T20:15:27.065Z,90.00
2019-02-24T20:18:07.888Z,89.60
2019-02-24T20:20:49.132Z,90.30
2019-02-24T20:23:30.063Z,90.70
2019-02-24T20:26:10.492Z,90.80
2019-02-24T20:28:51.334Z,90.60
2019-02-24T20:31:32.014Z,90.30
2019-02-24T20:34:12.629Z,90.60
2019-02-24T20:36:53.263Z,90.90
2019-02-24T20:39:33.837Z,90.90
2019-02-24T20:42:14.585Z,91.60
2019-02-24T20:44:54.806Z,91.80
2019-02-24T20:47:35.195Z,91.70
2019-02-24T20:50:15.826Z,91.90
2019-02-24T20:52:56.676Z,92.40
2019-02-24T20:55:37.267Z,92.70
2019-02-24T20:58:18.196Z,92.70
2019-02-24T21:00:58.711Z,92.70
2019-02-24T21:03:39.544Z,93.20
2019-02-24T21:06:20.322Z,92.90
2019-02-24T21:09:01.005Z,92.90
2019-02-24T21:11:41.475Z,93.30
2019-02-24T21:14:22.198Z,93.40
2019-02-24T21:17:02.900Z,93.90
2019-02-24T21:19:43.227Z,94.30
2019-02-24T21:22:24.109Z,94.40
2019-02-24T21:25:04.633Z,94.30
2019-02-24T21:27:45.421Z,94.60
2019-02-24T21:30:26.333Z,94.60
2019-02-24T21:33:07.211Z,95.50
2019-02-24T21:35:48.193Z,95.30
2019-02-24T21:38:29.179Z,95.50
2019-02-24T21:41:10.176Z,95.70
2019-02-24T21:43:50.811Z,95.60
2019-02-24T21:46:31.602Z,95.80
2019-02-24T21:49:12.409Z,96.00
2019-02-24T21:51:52.897Z,96.20
2019-02-24T21:54:33.629Z,96.20
2019-02-24T21:57:14.585Z,96.50
2019-02-24T21:59:55.562Z,97.00
2019-02-24T22:02:36.304Z,97.50
2019-02-24T22:05:16.938Z,97.50
2019-02-24T22:07:57.685Z,97.30
2019-02-24T22:10:38.740Z,98.00
2019-02-24T22:13:19.189Z,98.10
2019-02-24T22:16:00.208Z,98.00
2019-02-24T22:18:40.842Z,97.90
2019-02-24T22:21:21.644Z,97.90
2019-02-24T22:24:02.686Z,98.00
2019-02-24T22:26:43.313Z,98.20
2019-02-24T22:29:24.008Z,98.50
2019-02-24T22:32:05.036Z,98.60
2019-02-24T22:34:45.948Z,98.60
2019-02-24T22:37:26.348Z,98.60
2019-02-24T22:40:07.374Z,99.10
2019-02-24T22:42:48.012Z,99.00
2019-02-24T22:45:28.649Z,98.90
2019-02-24T22:48:09.521Z,99.00
2019-02-24T22:50:49.962Z,99.50
2019-02-24T22:53:30.784Z,99.60
2019-02-24T22:56:11.409Z,99.50
2019-02-24T22:58:52.064Z,99.40
2019-02-24T23:01:33.460Z,99.60
2019-02-24T23:04:13.840Z,99.40
2019-02-24T23:06:54.238Z,99.70
2019-02-24T23:09:34.968Z,99.90
2019-02-24T23:12:16.033Z,99.90
2019-02-24T23:14:56.833Z,99.90
2019-02-24T23:17:37.511Z,99.90
2019-02-24T23:20:18.573Z,99.90
2019-02-24T23:22:59.657Z,99.90
2019-02-24T23:25:40.689Z,99.90
2019-02-24T23:28:21.235Z,99.90
2019-02-24T23:31:01.841Z,99.90
2019-02-24T23:33:42.713Z,99.90
2019-02-24T23:36:23.377Z,99.90
2019-02-24T23:39:04.196Z,99.90
2019-02-24T23:41:44.811Z,99.90
2019-02-24T23:44:25.507Z,99.90
2019-02-24T23:47:06.616Z,99.90
2019-02-24T23:49:47.329Z,99.90
2019-02-24T23:52:27.926Z,99.90
2019-02-24T23:55:08.945Z,99.90
2019-02-24T23:57:49.837Z,99.90
